Terminal Aerodrome Forecast
Issued by NWS Billings, MT

Home | Current Version | Previous Version | Text Only | Print | Product List | Glossary On
Versions: 1 2 3 4 5 6 7 8 9 10 11 12 13 14 15 16 17 18 19 20 21 22 23 24 25 26 27 28 29 30 31 32 33 34 35 36 37 38 39 40 41
000
FTUS45 KBYZ 312125 AAD
TAFMLS
TAF AMD
KMLS 312125Z 3121/0118 05012KT 1SM -SN BR BKN005 OVC012
     FM010300 04010KT 6SM -SN BKN020 OVC030
     FM010900 02006KT P6SM -SN BKN020 OVC030
     FM011200 36006KT P6SM BKN040=

USA.gov is the U.S. government's official web portal to all federal, state and local government web resources and services.